Huvudsida
METAR-TAF:

METAR-TAF

Flygplatser :

Seinäjoki flygplats

Seinäjoki-Ilmola, Finland

latitud: 62-41-37N, longitud: 022-49-55E, höjd: 91 m

Aktuellt väderrapport

Denna rapport gjordes för 25 minuter sedan, klockan 12:50 UTC
Vind 8 kt från sydost, varierande mellan ost och syd
Temperatur 19°C
Fuktighet 78%
Tryck 1010 hPa
Sikt 10 km eller mer
Få moln på en höjd av 3400 ft
Spridda moln på en höjd av 9000 ft
Brutna moln på en höjd av 11000 ft

METAR: EFSI 171250Z AUTO 14008KT 100V180 9999 FEW034 SCT090 BKN110 19/15 Q1010

Tid: 16:15 (13:15 UTC)


TAF: saknas

Aktuella väderrapporter och prognoser från 4000 flygplatser (METAR- och TAF-rapporter).

De tillgängliga stationerna syns som gula och röda prickar på kartan.

För musen över prickarna för att se namnen på stationerna.

Klicka sedan för att få väderrapporter och prognoser.

För att ändra kartan: Klicka på de gröna knapparna med ett svart kors på för att zooma in; den gröna knappen med ett streck på för att zooma ut; eller på de gröna pilarna för angränsande kartor.


METAR-TAF: